Portada
METAR-TAF:

METAR-TAF

Aeroports :

Mendoza, Argentina

latitud: 32-50S, longitud: 068-47W, altitud: 705 m

Observació

L'informe es va fer fa 33 minuts, a les 13:00 UTC
Vent 2 kt del Nord-Est
Temperatura 16°C
Humitat 94%
Pressió 1020 hPa
Visibilitat: 4000 m
Núvols disperses a una alçada de 2000 ft
Cel ennuvolat a una alçada de 3000 ft
plugim

METAR: SAME 311300Z 05002KT 4000 DZ SCT020 BKN030 16/15 Q1020

Hora: 10:33 (13:33 UTC)

Pronòstic

L'informe es va fer fa 2 hores i 33 minuts, a les 11:00 UTC
Pronòstic vàlid del 31 a les 12 UTC al 01 a les 12 UTC
Vent 5 kt del Nord-Est
Visibilitat: 6000 m
Núvols disperses a una alçada de 2000 ft
Cel cobert a una alçada de 5000 ft
plugim, pluja
Evolucionant progressivament
l' 31 a les 13 UTC al 31 a les 15 UTC
Vent 5 kt del Est
Visibilitat 10 km o més
Núvols disperses a una alçada de 3000 ft
Cel ennuvolat a una alçada de 5000 ft

TAF: SAME 311100Z 3112/0112 05005KT 6000 DZRA SCT020 OVC050 TX23/3120Z TN15/0110Z BECMG 3113/3115 09005KT 9999 SCT030 BKN050

Observacions i pronòstics meteorològics de més de 4000 aeroports (METAR i TAF).

Les estacions disponibles són els punts grocs i vermells al mapa.

Posi el ratolí al punt desitjat per veure el nom de l'estació.

Feu clic per veure les observacions i els pronòstics meteorològics.

Per canviar el mapa: feu clic els botons verds amb una creu de color negre per apropar; al botó verd amb un guió per allunyar la imatge; o en les fletxes verdes per a mapes adjacents.


METAR-TAF: